createdAt,value
2022-12-27T00:01:31.263Z,0.40
2022-12-27T00:04:02.077Z,0.80
2022-12-27T00:06:33.015Z,0.50
2022-12-27T00:09:04.160Z,0.30
2022-12-27T00:11:35.034Z,0.80
2022-12-27T00:14:07.761Z,0.40
2022-12-27T00:16:38.702Z,0.80
2022-12-27T00:19:09.709Z,1.00
2022-12-27T00:21:40.417Z,0.80
2022-12-27T00:24:11.392Z,1.00
2022-12-27T00:26:42.473Z,0.80
2022-12-27T00:29:13.568Z,0.80
2022-12-27T00:31:44.264Z,0.90
2022-12-27T00:34:14.912Z,0.80
2022-12-27T00:36:45.924Z,0.40
2022-12-27T00:39:17.286Z,0.70
2022-12-27T00:44:19.057Z,0.50
2022-12-27T00:46:49.875Z,1.00
2022-12-27T00:49:21.752Z,0.40
2022-12-27T00:51:52.556Z,1.00
2022-12-27T00:54:23.207Z,0.50
2022-12-27T00:56:53.950Z,0.70
2022-12-27T00:59:24.608Z,0.60
2022-12-27T01:01:55.329Z,0.50
2022-12-27T01:04:26.173Z,0.50
2022-12-27T01:06:56.881Z,0.70
2022-12-27T01:09:27.737Z,0.50
2022-12-27T01:11:59.004Z,0.50
2022-12-27T01:14:29.717Z,0.60
2022-12-27T01:17:00.370Z,1.00
2022-12-27T01:19:31.457Z,0.60
2022-12-27T01:22:03.134Z,0.60
2022-12-27T01:24:34.499Z,0.60
2022-12-27T01:27:05.328Z,0.40
2022-12-27T01:29:36.074Z,0.90
2022-12-27T01:32:07.078Z,0.40
2022-12-27T01:34:37.814Z,0.90
2022-12-27T01:37:09.817Z,0.70
2022-12-27T01:39:40.527Z,0.30
2022-12-27T01:42:37.602Z,0.70
2022-12-27T01:47:50.032Z,0.60
2022-12-27T01:50:27.481Z,0.60
2022-12-27T01:53:05.461Z,0.40
2022-12-27T01:55:41.627Z,0.30
2022-12-27T01:58:16.072Z,0.20
2022-12-27T02:00:49.192Z,0.90
2022-12-27T02:03:26.010Z,1.00
2022-12-27T02:05:58.039Z,0.60
2022-12-27T02:08:41.512Z,0.70
2022-12-27T02:11:14.500Z,0.60
2022-12-27T02:16:18.146Z,0.40
2022-12-27T02:18:49.321Z,0.90
2022-12-27T02:21:47.161Z,1.00
2022-12-27T02:24:37.917Z,0.60
2022-12-27T02:27:20.598Z,0.30
2022-12-27T02:30:02.997Z,0.50
2022-12-27T02:32:38.744Z,0.70
2022-12-27T02:35:14.690Z,0.30
2022-12-27T02:37:50.575Z,0.50
2022-12-27T02:40:42.474Z,0.70
2022-12-27T02:43:31.400Z,1.00
2022-12-27T02:46:29.102Z,0.70
2022-12-27T02:49:18.299Z,0.40
2022-12-27T02:52:21.936Z,0.50
2022-12-27T02:55:21.487Z,0.40
2022-12-27T02:58:02.776Z,0.50
2022-12-27T03:00:59.263Z,0.60
2022-12-27T03:03:53.591Z,0.40
2022-12-27T03:06:46.040Z,0.40
2022-12-27T03:09:56.524Z,0.70
2022-12-27T03:13:03.705Z,0.60
2022-12-27T03:15:56.595Z,0.60
2022-12-27T03:18:47.464Z,0.70
2022-12-27T03:21:43.098Z,1.10
2022-12-27T03:24:33.012Z,0.70
2022-12-27T03:27:05.948Z,0.60
2022-12-27T03:32:42.629Z,0.70
2022-12-27T03:35:18.723Z,0.70
2022-12-27T03:38:06.227Z,0.50
2022-12-27T03:41:06.143Z,0.40
2022-12-27T03:43:38.033Z,0.70
2022-12-27T03:46:39.098Z,1.00
2022-12-27T03:49:21.280Z,1.10
2022-12-27T03:51:56.557Z,0.50
2022-12-27T03:54:30.216Z,0.50
2022-12-27T03:57:03.888Z,0.70
2022-12-27T03:59:34.743Z,0.50
2022-12-27T04:02:06.594Z,1.50
2022-12-27T04:04:37.872Z,0.40
2022-12-27T04:07:09.087Z,0.90
2022-12-27T04:09:57.691Z,0.70
2022-12-27T04:12:45.936Z,1.20
2022-12-27T04:15:34.237Z,0.80
2022-12-27T04:18:23.057Z,0.60
2022-12-27T04:21:11.486Z,0.30
2022-12-27T04:23:59.946Z,0.60
2022-12-27T04:26:48.244Z,0.50
2022-12-27T04:29:36.676Z,0.40
2022-12-27T04:32:25.239Z,0.60
2022-12-27T04:34:55.860Z,1.00
2022-12-27T04:37:26.536Z,1.00
2022-12-27T04:40:11.121Z,0.90
2022-12-27T04:43:00.769Z,1.00
2022-12-27T04:45:49.298Z,0.80
2022-12-27T04:48:38.387Z,0.40
2022-12-27T04:51:28.668Z,0.50
2022-12-27T04:54:17.126Z,0.60
2022-12-27T04:56:47.721Z,1.00
2022-12-27T04:59:35.353Z,0.60
2022-12-27T05:02:06.147Z,0.90
2022-12-27T05:04:40.880Z,0.80
2022-12-27T05:07:31.522Z,1.00
2022-12-27T05:10:22.277Z,1.20
2022-12-27T05:13:11.007Z,0.70
2022-12-27T05:15:41.746Z,0.80
2022-12-27T05:18:12.391Z,0.80
2022-12-27T05:20:43.136Z,0.50
2022-12-27T05:23:32.375Z,1.50
2022-12-27T05:26:03.227Z,0.50
2022-12-27T05:28:33.924Z,0.80
2022-12-27T05:31:05.493Z,0.80
2022-12-27T05:33:36.191Z,0.60
2022-12-27T05:36:08.413Z,0.50
2022-12-27T05:38:39.152Z,0.40
2022-12-27T05:41:10.287Z,0.60
2022-12-27T05:43:41.521Z,0.50
2022-12-27T05:46:14.048Z,0.90
2022-12-27T05:48:45.176Z,0.50
2022-12-27T05:51:19.080Z,0.50
2022-12-27T05:53:50.341Z,0.60
2022-12-27T05:56:22.602Z,0.60
2022-12-27T05:58:56.283Z,0.40
2022-12-27T06:01:27.051Z,0.50
2022-12-27T06:03:57.813Z,0.80
2022-12-27T06:06:28.448Z,0.40
2022-12-27T06:08:59.109Z,0.90
2022-12-27T06:11:29.835Z,0.40
2022-12-27T06:14:00.549Z,0.80
2022-12-27T06:16:31.196Z,0.50
2022-12-27T06:19:01.921Z,0.50
2022-12-27T06:21:32.674Z,0.40
2022-12-27T06:24:03.450Z,0.50
2022-12-27T06:26:34.386Z,0.50
2022-12-27T06:29:05.225Z,0.70
2022-12-27T06:31:36.005Z,0.50
2022-12-27T06:34:06.671Z,0.60
2022-12-27T06:36:37.342Z,0.90
2022-12-27T06:39:08.389Z,0.60
2022-12-27T06:41:39.033Z,0.60
2022-12-27T06:44:09.708Z,0.60
2022-12-27T06:46:40.455Z,0.80
2022-12-27T06:49:12.733Z,0.50
2022-12-27T06:51:43.591Z,0.30
2022-12-27T06:54:14.268Z,1.20
2022-12-27T06:56:45.699Z,0.60
2022-12-27T06:59:16.393Z,0.40
2022-12-27T07:01:47.182Z,0.70
2022-12-27T07:04:18.001Z,0.40
2022-12-27T07:06:48.915Z,0.50
2022-12-27T07:09:19.928Z,0.60
2022-12-27T07:11:50.741Z,0.70
2022-12-27T07:14:21.546Z,0.30
2022-12-27T07:16:52.921Z,0.30
2022-12-27T07:19:23.642Z,0.60
2022-12-27T07:21:54.438Z,0.40
2022-12-27T07:24:25.077Z,0.60
2022-12-27T07:26:55.824Z,0.40
2022-12-27T07:29:26.485Z,0.50
2022-12-27T07:31:57.316Z,0.70
2022-12-27T07:34:28.110Z,0.40
2022-12-27T07:36:58.776Z,0.50
2022-12-27T07:39:29.437Z,0.70
2022-12-27T07:42:04.783Z,0.60
2022-12-27T07:44:41.285Z,0.40
2022-12-27T07:47:11.941Z,0.90
2022-12-27T07:49:42.548Z,0.60
2022-12-27T07:52:13.206Z,0.80
2022-12-27T07:54:44.287Z,0.50
2022-12-27T07:57:14.977Z,1.30
2022-12-27T07:59:45.754Z,0.90
2022-12-27T08:02:16.920Z,2.00
2022-12-27T08:04:47.623Z,0.90
2022-12-27T08:07:20.747Z,0.90
2022-12-27T08:09:51.478Z,0.90
2022-12-27T08:12:22.147Z,0.60
2022-12-27T08:14:52.744Z,0.60
2022-12-27T08:17:27.852Z,0.70
2022-12-27T08:19:58.592Z,0.40
2022-12-27T08:22:29.718Z,0.80
2022-12-27T08:25:00.345Z,0.70
2022-12-27T08:27:31.556Z,0.40
2022-12-27T08:30:04.847Z,0.30
2022-12-27T08:32:35.470Z,0.70
2022-12-27T08:35:41.783Z,0.90
2022-12-27T08:37:57.430Z,0.70
2022-12-27T08:40:28.380Z,0.30
2022-12-27T08:42:59.936Z,0.80
2022-12-27T08:45:30.578Z,1.10
2022-12-27T08:48:03.012Z,0.80
2022-12-27T08:50:34.282Z,1.10
2022-12-27T08:53:07.071Z,0.60
2022-12-27T08:55:37.889Z,1.00
2022-12-27T08:58:16.074Z,0.80
2022-12-27T09:00:47.305Z,0.70
2022-12-27T09:03:21.424Z,0.60
2022-12-27T09:05:52.109Z,0.30
2022-12-27T09:08:22.763Z,1.20
2022-12-27T09:10:53.442Z,0.80
2022-12-27T09:13:24.154Z,0.60
2022-12-27T09:15:54.973Z,0.80
2022-12-27T09:18:25.653Z,0.80
2022-12-27T09:20:56.354Z,0.60
2022-12-27T09:23:27.111Z,0.40
2022-12-27T09:25:57.808Z,0.70
2022-12-27T09:28:28.573Z,0.70
2022-12-27T09:30:59.213Z,0.60
2022-12-27T09:33:30.561Z,0.60
2022-12-27T09:36:10.119Z,1.60
2022-12-27T09:38:41.485Z,0.80
2022-12-27T09:41:59.011Z,0.40
2022-12-27T09:44:20.128Z,0.60
2022-12-27T09:46:54.288Z,0.70
2022-12-27T09:49:32.125Z,0.60
2022-12-27T09:52:08.373Z,0.30
2022-12-27T09:54:47.707Z,0.70
2022-12-27T09:57:22.557Z,0.50
2022-12-27T09:59:58.413Z,0.60
2022-12-27T10:02:30.149Z,0.80
2022-12-27T10:05:19.603Z,0.70
2022-12-27T10:08:03.903Z,0.80
2022-12-27T10:10:44.270Z,0.50
2022-12-27T10:13:30.746Z,0.30
2022-12-27T10:16:16.727Z,0.40
2022-12-27T10:19:00.595Z,0.80
2022-12-27T10:21:36.044Z,0.50
2022-12-27T10:24:18.172Z,0.60
2022-12-27T10:26:48.961Z,1.00
2022-12-27T10:29:23.392Z,0.70
2022-12-27T10:31:54.707Z,0.30
2022-12-27T10:34:25.568Z,0.60
2022-12-27T10:36:56.310Z,0.40
2022-12-27T10:39:29.754Z,0.80
2022-12-27T10:42:10.819Z,0.30
2022-12-27T10:44:42.817Z,0.30
2022-12-27T10:47:14.128Z,1.20
2022-12-27T10:50:02.766Z,0.90
2022-12-27T10:52:35.787Z,1.00
2022-12-27T10:55:07.191Z,0.90
2022-12-27T10:57:37.849Z,0.80
2022-12-27T11:00:23.311Z,0.90
2022-12-27T11:02:55.864Z,0.80
2022-12-27T11:05:29.649Z,0.50
2022-12-27T11:08:01.315Z,0.20
2022-12-27T11:10:32.982Z,0.70
2022-12-27T11:13:06.146Z,1.50
2022-12-27T11:15:39.216Z,0.80
2022-12-27T11:18:19.200Z,0.70
2022-12-27T11:20:53.191Z,0.90
2022-12-27T11:23:25.542Z,0.90
2022-12-27T11:25:59.057Z,0.40
2022-12-27T11:28:37.596Z,0.30
2022-12-27T11:31:11.284Z,0.60
2022-12-27T11:33:46.729Z,0.50
2022-12-27T11:36:25.686Z,0.40
2022-12-27T11:38:56.592Z,0.60
2022-12-27T11:41:38.351Z,0.50
2022-12-27T11:44:16.116Z,0.40
2022-12-27T11:46:58.556Z,0.50
2022-12-27T11:49:37.050Z,0.50
2022-12-27T11:52:25.759Z,0.40
2022-12-27T11:55:22.301Z,0.60
2022-12-27T11:58:15.619Z,1.00
2022-12-27T12:01:03.593Z,0.60
2022-12-27T12:04:09.136Z,0.30
2022-12-27T12:06:53.352Z,0.30
2022-12-27T12:09:43.898Z,0.30
2022-12-27T12:12:39.247Z,0.50
2022-12-27T12:15:34.871Z,0.60
2022-12-27T12:18:16.696Z,0.40
2022-12-27T12:21:13.707Z,0.20
2022-12-27T12:24:01.028Z,0.50
2022-12-27T12:26:38.790Z,0.50
2022-12-27T12:29:34.978Z,0.60
2022-12-27T12:32:42.149Z,0.60
2022-12-27T12:35:40.095Z,0.60
2022-12-27T12:38:23.665Z,0.20
2022-12-27T12:41:17.893Z,0.60
2022-12-27T12:44:08.855Z,1.10
2022-12-27T12:46:44.039Z,0.50
2022-12-27T12:49:30.149Z,0.60
2022-12-27T12:52:26.644Z,0.30
2022-12-27T12:55:20.559Z,0.40
2022-12-27T12:57:59.506Z,0.30
2022-12-27T13:03:46.021Z,0.60
2022-12-27T13:06:28.556Z,0.50
2022-12-27T13:09:11.292Z,0.30
2022-12-27T13:11:55.549Z,0.80
2022-12-27T13:14:42.365Z,0.60
2022-12-27T13:17:20.501Z,0.40
2022-12-27T13:20:06.740Z,0.50
2022-12-27T13:22:49.372Z,0.40
2022-12-27T13:25:28.135Z,0.60
2022-12-27T13:28:21.810Z,0.60
2022-12-27T13:31:00.686Z,0.50
2022-12-27T13:36:23.282Z,0.70
2022-12-27T13:39:22.876Z,0.30
2022-12-27T13:42:10.216Z,1.00
2022-12-27T13:44:55.791Z,1.10
2022-12-27T13:47:53.431Z,0.80
2022-12-27T13:50:57.876Z,0.80
2022-12-27T13:54:05.268Z,0.70
2022-12-27T13:56:53.875Z,2.60
2022-12-27T13:59:51.711Z,0.60
2022-12-27T14:03:02.815Z,0.80
2022-12-27T14:06:12.042Z,0.50
2022-12-27T14:11:49.919Z,1.20
2022-12-27T14:14:22.237Z,1.30
2022-12-27T14:17:09.703Z,1.40
2022-12-27T14:20:04.846Z,0.90
2022-12-27T14:22:54.294Z,0.70
2022-12-27T14:26:00.132Z,0.60
2022-12-27T14:29:10.299Z,0.70
2022-12-27T14:32:11.676Z,0.60
2022-12-27T14:35:04.775Z,0.50
2022-12-27T14:38:19.518Z,1.30
2022-12-27T14:41:30.437Z,0.80
2022-12-27T14:44:29.463Z,0.70
2022-12-27T14:47:38.649Z,0.80
2022-12-27T14:53:21.625Z,0.70
2022-12-27T14:56:08.795Z,1.10
2022-12-27T14:59:09.119Z,0.90
2022-12-27T15:01:53.543Z,1.00
2022-12-27T15:04:53.196Z,1.00
2022-12-27T15:08:03.995Z,0.90
2022-12-27T15:11:02.421Z,0.70
2022-12-27T15:13:52.819Z,0.80
2022-12-27T15:16:32.151Z,0.40
2022-12-27T15:19:18.138Z,0.50
2022-12-27T15:22:08.124Z,0.70
2022-12-27T15:24:49.751Z,0.50
2022-12-27T15:27:26.409Z,0.90
2022-12-27T15:30:23.912Z,0.90
2022-12-27T15:33:04.233Z,1.00
2022-12-27T15:35:50.515Z,0.70
2022-12-27T15:38:38.969Z,0.50
2022-12-27T15:41:28.339Z,0.80
2022-12-27T15:44:13.557Z,0.50
2022-12-27T15:47:08.134Z,0.60
2022-12-27T15:49:56.927Z,0.60
2022-12-27T15:52:43.527Z,0.80
2022-12-27T15:55:32.157Z,0.80
2022-12-27T15:58:16.650Z,1.00
2022-12-27T16:01:08.454Z,0.70
2022-12-27T16:03:40.745Z,1.40
2022-12-27T16:06:32.510Z,1.20
2022-12-27T16:09:23.000Z,1.20
2022-12-27T16:12:09.958Z,1.00
2022-12-27T16:14:43.429Z,0.80
2022-12-27T16:17:36.660Z,1.30
2022-12-27T16:20:15.395Z,3.80
2022-12-27T16:22:52.339Z,2.20
2022-12-27T16:25:31.425Z,1.40
2022-12-27T16:28:07.576Z,1.50
2022-12-27T16:30:48.910Z,1.30
2022-12-27T16:33:41.033Z,1.20
2022-12-27T16:36:33.519Z,0.80
2022-12-27T16:39:38.362Z,1.60
2022-12-27T16:42:10.269Z,1.90
2022-12-27T16:45:04.853Z,2.40
2022-12-27T16:48:08.898Z,1.70
2022-12-27T16:51:03.806Z,2.50
2022-12-27T16:54:05.718Z,2.00
2022-12-27T16:56:38.201Z,1.40
2022-12-27T16:59:48.532Z,1.70
2022-12-27T17:02:41.954Z,1.80
2022-12-27T17:05:41.902Z,2.10
2022-12-27T17:08:21.225Z,1.90
2022-12-27T17:11:03.945Z,2.10
2022-12-27T17:13:47.839Z,2.60
2022-12-27T17:16:22.821Z,2.80
2022-12-27T17:18:57.901Z,6.00
2022-12-27T17:21:32.711Z,4.30
2022-12-27T17:24:09.165Z,2.90
2022-12-27T17:27:06.266Z,2.10
2022-12-27T17:29:54.341Z,2.50
2022-12-27T17:32:38.190Z,2.60
2022-12-27T17:35:17.347Z,2.40
2022-12-27T17:38:12.446Z,3.00
2022-12-27T17:40:54.434Z,2.40
2022-12-27T17:43:53.181Z,2.60
2022-12-27T17:46:39.208Z,2.50
2022-12-27T17:49:11.839Z,2.60
2022-12-27T17:52:04.767Z,2.90
2022-12-27T17:54:53.383Z,2.10
2022-12-27T17:57:42.254Z,2.90
2022-12-27T18:00:25.501Z,2.40
2022-12-27T18:02:59.015Z,1.80
2022-12-27T18:05:34.102Z,1.60
2022-12-27T18:08:08.091Z,1.10
2022-12-27T18:10:39.035Z,1.50
2022-12-27T18:13:16.885Z,2.50
2022-12-27T18:15:49.775Z,2.20
2022-12-27T18:18:24.778Z,2.00
2022-12-27T18:20:59.640Z,2.50
2022-12-27T18:23:31.124Z,2.10
2022-12-27T18:26:13.494Z,2.20
2022-12-27T18:28:45.145Z,1.60
2022-12-27T18:31:22.740Z,3.00
2022-12-27T18:33:56.323Z,1.90
2022-12-27T18:36:30.907Z,2.40
2022-12-27T18:39:08.341Z,2.30
2022-12-27T18:41:44.335Z,2.60
2022-12-27T18:44:26.774Z,1.90
2022-12-27T18:47:01.616Z,1.80
2022-12-27T18:49:34.896Z,2.10
2022-12-27T18:52:14.901Z,2.20
2022-12-27T18:54:45.549Z,2.60
2022-12-27T18:57:33.037Z,2.40
2022-12-27T19:00:14.306Z,1.80
2022-12-27T19:02:46.213Z,1.60
2022-12-27T19:05:27.950Z,1.50
2022-12-27T19:08:10.346Z,1.20
2022-12-27T19:10:47.512Z,2.00
2022-12-27T19:13:26.908Z,1.50
2022-12-27T19:15:58.931Z,2.00
2022-12-27T19:18:32.477Z,2.30
2022-12-27T19:21:05.691Z,2.10
2022-12-27T19:23:38.256Z,1.90
2022-12-27T19:26:25.183Z,2.00
2022-12-27T19:29:04.213Z,1.70
2022-12-27T19:31:36.108Z,1.70
2022-12-27T19:34:11.906Z,1.90
2022-12-27T19:36:45.157Z,1.50
2022-12-27T19:39:22.460Z,1.50
2022-12-27T19:41:54.082Z,1.40
2022-12-27T19:44:32.841Z,1.60
2022-12-27T19:47:03.460Z,1.20
2022-12-27T19:49:42.631Z,1.30
2022-12-27T19:52:19.357Z,1.30
2022-12-27T19:54:52.110Z,1.80
2022-12-27T19:57:23.242Z,1.80
2022-12-27T19:59:53.896Z,2.40
2022-12-27T20:02:24.899Z,2.00
2022-12-27T20:04:55.711Z,2.90
2022-12-27T20:07:27.538Z,2.70
2022-12-27T20:09:58.563Z,2.80
2022-12-27T20:12:29.474Z,3.30
2022-12-27T20:15:00.303Z,2.40
2022-12-27T20:17:32.856Z,2.10
2022-12-27T20:20:03.787Z,2.50
2022-12-27T20:22:35.598Z,2.30
2022-12-27T20:25:07.185Z,2.10
2022-12-27T20:27:38.054Z,2.10
2022-12-27T20:30:11.389Z,1.20
2022-12-27T20:32:42.051Z,1.70
2022-12-27T20:35:13.127Z,1.90
2022-12-27T20:37:44.193Z,1.20
2022-12-27T20:40:16.069Z,1.80
2022-12-27T20:42:46.938Z,1.10
2022-12-27T20:45:18.570Z,1.30
2022-12-27T20:47:49.548Z,1.40
2022-12-27T20:50:20.536Z,1.20
2022-12-27T20:52:51.489Z,1.10
2022-12-27T20:55:22.656Z,1.10
2022-12-27T20:57:53.562Z,1.20
2022-12-27T21:00:24.377Z,0.80
2022-12-27T21:02:55.163Z,1.70
2022-12-27T21:05:26.081Z,1.40
2022-12-27T21:07:57.209Z,1.30
2022-12-27T21:10:27.845Z,1.10
2022-12-27T21:12:58.664Z,1.30
2022-12-27T21:15:31.298Z,1.00
2022-12-27T21:18:02.190Z,1.60
2022-12-27T21:20:32.866Z,1.10
2022-12-27T21:23:03.716Z,1.30
2022-12-27T21:25:35.549Z,1.70
2022-12-27T21:28:06.757Z,1.30
2022-12-27T21:30:37.640Z,1.70
2022-12-27T21:33:08.435Z,0.70
2022-12-27T21:35:39.229Z,1.10
2022-12-27T21:38:09.956Z,1.20
2022-12-27T21:40:40.706Z,1.50
2022-12-27T21:43:11.361Z,1.30
2022-12-27T21:45:42.084Z,1.50
2022-12-27T21:48:12.841Z,5.00
2022-12-27T21:50:43.588Z,2.40
2022-12-27T21:53:15.126Z,1.40
2022-12-27T21:55:46.229Z,1.60
2022-12-27T21:58:17.037Z,1.10
2022-12-27T22:00:47.708Z,1.30
2022-12-27T22:03:18.456Z,1.40
2022-12-27T22:05:49.207Z,1.10
2022-12-27T22:08:20.037Z,1.40
2022-12-27T22:10:58.148Z,1.50
2022-12-27T22:13:28.815Z,1.70
2022-12-27T22:16:01.598Z,2.40
2022-12-27T22:18:35.360Z,3.60
2022-12-27T22:21:07.927Z,2.10
2022-12-27T22:23:40.539Z,1.80
2022-12-27T22:26:14.645Z,0.70
2022-12-27T22:28:45.608Z,1.30
2022-12-27T22:31:18.691Z,1.40
2022-12-27T22:33:50.651Z,1.10
2022-12-27T22:36:23.189Z,0.90
2022-12-27T22:38:55.845Z,0.80
2022-12-27T22:41:28.350Z,1.30
2022-12-27T22:44:00.607Z,1.50
2022-12-27T22:46:58.528Z,1.30
2022-12-27T22:49:22.749Z,1.30
2022-12-27T22:51:53.470Z,1.50
2022-12-27T22:55:03.325Z,1.30
2022-12-27T22:57:14.982Z,1.40
2022-12-27T22:59:45.587Z,0.90
2022-12-27T23:02:16.336Z,1.30
2022-12-27T23:04:47.516Z,1.70
2022-12-27T23:07:20.129Z,1.40
2022-12-27T23:09:50.936Z,2.10
2022-12-27T23:12:21.845Z,0.50
2022-12-27T23:14:52.564Z,1.80
2022-12-27T23:17:23.357Z,1.30
2022-12-27T23:19:54.046Z,1.40
2022-12-27T23:22:24.684Z,1.90
2022-12-27T23:24:55.384Z,5.40
2022-12-27T23:27:26.031Z,2.10
2022-12-27T23:29:56.811Z,1.80
2022-12-27T23:32:27.501Z,2.20
2022-12-27T23:34:58.297Z,1.20
2022-12-27T23:37:28.909Z,1.70
2022-12-27T23:39:59.642Z,1.20
2022-12-27T23:42:30.387Z,0.90
2022-12-27T23:45:01.074Z,1.00
2022-12-27T23:47:31.732Z,1.00
2022-12-27T23:50:02.664Z,1.20
2022-12-27T23:52:33.391Z,1.00
2022-12-27T23:55:04.233Z,0.90
2022-12-27T23:57:34.924Z,0.90
